Time;durP1;ratioP1;P1;durP2;ratioP2;P2;SDS_P1;SDS_P2;PMS_P1;PMS_P2;Temp;Humidity;BMP_temperature;BMP_pressure;BME280_temperature;BME280_humidity;BME280_pressure;Samples;Min_cycle;Max_cycle;Signal;HPM_P1;HPM_P2
2023/01/29 00:00:23;;;;;;;2.85;1.90;;;;;;;-0.08;89.09;100487.69;6346356;28;20040;-71
2023/01/29 00:03:24;;;;;;;7.30;4.20;;;;;;;-0.17;88.55;100498.03;6342345;28;20032;-78
2023/01/29 00:06:25;;;;;;;2.00;1.65;;;;;;;-0.01;88.50;100498.72;6328598;28;20042;-78
2023/01/29 00:09:27;;;;;;;4.28;2.47;;;;;;;-0.08;88.96;100490.25;6328348;28;20039;-78
2023/01/29 00:12:30;;;;;;;2.28;1.95;;;;;;;0.00;88.01;100487.63;6327693;28;20488;-78
2023/01/29 00:15:31;;;;;;;2.35;1.70;;;;;;;0.03;88.34;100500.41;6326078;28;20103;-78
2023/01/29 00:18:32;;;;;;;3.15;1.48;;;;;;;-0.17;88.43;100498.03;6315908;28;20384;-78
2023/01/29 00:21:33;;;;;;;6.25;3.35;;;;;;;0.07;87.72;100507.19;6343059;28;20096;-72
2023/01/29 00:24:34;;;;;;;2.40;1.40;;;;;;;-0.09;87.91;100498.81;6327438;28;20043;-78
2023/01/29 00:27:35;;;;;;;5.43;2.08;;;;;;;-0.03;88.10;100505.59;6371701;27;20047;-78
2023/01/29 00:30:36;;;;;;;3.83;2.40;;;;;;;0.07;88.03;100504.63;6362841;27;20102;-78
2023/01/29 00:33:37;;;;;;;5.32;2.67;;;;;;;-0.09;88.53;100511.63;6327155;28;20036;-78
2023/01/29 00:36:38;;;;;;;7.32;2.97;;;;;;;-0.26;88.94;100508.38;6316313;28;20510;-78
2023/01/29 00:39:39;;;;;;;5.55;3.50;;;;;;;-0.23;88.90;100511.78;6324823;28;20114;-72
2023/01/29 00:45:59;;;;;;;4.07;2.08;;;;;;;-0.27;89.79;100528.06;6344027;28;20458;-72
2023/01/29 00:49:00;;;;;;;9.25;3.17;;;;;;;-0.35;89.97;100524.72;6311966;28;20123;-71
2023/01/29 00:55:20;;;;;;;3.50;2.45;;;;;;;-0.36;89.70;100525.56;6336848;28;20098;-78
2023/01/29 00:58:27;;;;;;;5.90;2.08;;;;;;;-0.40;90.23;100536.72;6324937;28;20035;-78
2023/01/29 01:04:47;;;;;;;6.75;2.22;;;;;;;-0.41;90.69;100532.47;6337851;28;20036;-78
2023/01/29 01:07:54;;;;;;;5.63;2.85;;;;;;;-0.35;91.20;100529.84;6310476;28;20047;-71
2023/01/29 01:11:04;;;;;;;9.60;2.38;;;;;;;-0.26;90.06;100534.88;6343937;28;20144;-72
2023/01/29 01:14:05;;;;;;;2.00;1.83;;;;;;;-0.45;90.77;100533.34;6327935;28;20044;-72
2023/01/29 01:17:05;;;;;;;5.47;2.53;;;;;;;-0.46;91.88;100521.38;6350254;28;20104;-78
2023/01/29 01:20:07;;;;;;;11.13;2.38;;;;;;;-0.33;90.92;100524.69;6330477;28;20036;-72
2023/01/29 01:23:08;;;;;;;5.68;1.95;;;;;;;-0.39;91.40;100538.44;6332174;28;20039;-72
2023/01/29 01:26:10;;;;;;;7.15;2.60;;;;;;;-0.36;90.71;100537.53;6323284;27;20035;-78
2023/01/29 01:29:11;;;;;;;7.63;2.05;;;;;;;-0.33;91.09;100530.69;6349937;28;20040;-73
2023/01/29 01:32:12;;;;;;;3.95;1.80;;;;;;;-0.30;91.63;100529.78;6331887;28;20423;-72
2023/01/29 01:35:13;;;;;;;4.10;2.28;;;;;;;-0.28;90.75;100538.31;6330658;28;20036;-71
2023/01/29 01:38:14;;;;;;;7.43;2.70;;;;;;;-0.34;91.54;100540.94;6313093;28;20301;-71
2023/01/29 01:41:20;;;;;;;3.03;1.77;;;;;;;-0.36;91.57;100537.53;6346766;28;20051;-71
2023/01/29 01:44:55;;;;;;;4.50;3.05;;;;;;;-0.35;91.95;100539.22;6348939;28;20476;-78
2023/01/29 01:48:11;;;;;;;10.57;2.75;;;;;;;-0.28;91.64;100549.44;6348657;28;20047;-72
2023/01/29 01:51:15;;;;;;;5.30;3.38;;;;;;;-0.39;91.75;100529.88;6348377;28;20048;-71
2023/01/29 01:54:24;;;;;;;3.15;1.98;;;;;;;-0.26;91.67;100544.28;6348825;28;20044;-78
2023/01/29 01:57:29;;;;;;;4.18;2.05;;;;;;;-0.30;91.33;100550.31;6329477;28;20036;-78
2023/01/29 02:00:30;;;;;;;5.82;2.97;;;;;;;-0.37;92.08;100557.22;6308206;28;20403;-79
2023/01/29 02:10:19;;;;;;;5.43;2.47;;;;;;;-0.09;89.82;100570.63;6342732;28;20093;-71
2023/01/29 02:13:21;;;;;;;3.38;1.55;;;;;;;-0.14;90.42;100569.00;6336914;28;20305;-78
2023/01/29 02:16:22;;;;;;;0.70;0.70;;;;;;;-0.31;90.66;100567.41;6323888;28;20068;-78
2023/01/29 02:19:45;;;;;;;7.38;2.33;;;;;;;-0.12;90.53;100582.66;6346981;27;21661;-71
2023/01/29 02:23:14;;;;;;;3.78;2.30;;;;;;;-0.29;90.94;100578.53;6336605;28;20036;-71
2023/01/29 02:26:18;;;;;;;1.63;1.52;;;;;;;-0.39;92.02;100571.75;6343177;28;20526;-78
2023/01/29 02:29:38;;;;;;;3.20;1.70;;;;;;;-0.36;91.84;100578.56;6329829;28;20040;-71
2023/01/29 02:32:57;;;;;;;2.65;1.70;;;;;;;-0.42;91.95;100582.88;6342382;28;20503;-78
2023/01/29 02:36:39;;;;;;;2.20;1.85;;;;;;;-0.32;92.12;100581.09;6323329;28;20169;-72
2023/01/29 02:39:56;;;;;;;8.30;3.13;;;;;;;-0.42;92.27;100585.44;6300085;28;20056;-78
2023/01/29 02:43:13;;;;;;;1.42;1.33;;;;;;;-0.41;91.43;100576.91;6323027;28;20032;-71
2023/01/29 02:46:17;;;;;;;2.00;0.82;;;;;;;-0.24;90.89;100584.44;6327834;28;20051;-78
2023/01/29 02:49:20;;;;;;;2.67;2.45;;;;;;;-0.23;90.46;100586.16;6348205;28;20039;-72
2023/01/29 02:52:34;;;;;;;3.13;1.40;;;;;;;-0.12;90.72;100591.19;6330034;28;20048;-78
2023/01/29 02:55:48;;;;;;;5.07;2.28;;;;;;;-0.19;90.41;100589.53;6330000;28;20487;-78
2023/01/29 02:59:06;;;;;;;12.32;1.50;;;;;;;-0.06;90.58;100591.16;6348045;28;20040;-78
2023/01/29 03:02:12;;;;;;;4.50;2.22;;;;;;;-0.12;90.02;100591.19;6329816;28;20039;-78
2023/01/29 03:05:24;;;;;;;1.23;1.13;;;;;;;-0.03;89.48;100596.22;6329762;28;20036;-72
2023/01/29 03:09:01;;;;;;;3.38;1.67;;;;;;;0.16;88.42;100603.75;6347888;28;20488;-78
2023/01/29 03:12:34;;;;;;;1.65;1.17;;;;;;;0.01;89.74;100591.94;6304755;28;20046;-78
2023/01/29 03:15:45;;;;;;;5.97;3.17;;;;;;;-0.02;88.79;100602.25;6322007;28;20419;-71
2023/01/29 03:19:08;;;;;;;2.75;2.25;;;;;;;0.00;87.87;100610.78;6326902;28;20044;-78
2023/01/29 03:22:09;;;;;;;;;;;;;;;0.06;88.11;100618.38;6316619;28;20036;-71
2023/01/29 03:32:07;;;;;;;3.03;1.83;;;;;;;0.15;88.22;100610.63;6346811;28;20046;-78
2023/01/29 03:35:12;;;;;;;3.78;2.38;;;;;;;0.22;87.44;100626.81;6325611;28;20032;-72
2023/01/29 03:38:14;;;;;;;6.18;2.15;;;;;;;0.12;87.92;100622.63;6341522;28;20084;-71
2023/01/29 03:41:33;;;;;;;2.00;1.02;;;;;;;0.26;87.64;100625.06;6346653;28;20057;-78
2023/01/29 03:44:46;;;;;;;4.63;1.30;;;;;;;0.27;87.09;100622.50;6311328;28;20490;-72
2023/01/29 03:48:05;;;;;;;3.05;2.47;;;;;;;0.09;87.80;100623.50;6303671;27;20040;-71
2023/01/29 03:51:25;;;;;;;1.27;1.08;;;;;;;0.14;87.00;100620.88;6323953;28;20048;-72
2023/01/29 03:54:56;;;;;;;5.00;2.38;;;;;;;0.03;87.52;100615.88;6342846;28;20036;-77
2023/01/29 03:58:15;;;;;;;2.25;1.05;;;;;;;0.14;87.42;100621.72;6346505;28;20035;-71
2023/01/29 04:01:25;;;;;;;2.75;1.63;;;;;;;0.28;87.07;100625.91;6314069;28;20535;-72
2023/01/29 04:04:30;;;;;;;4.47;1.83;;;;;;;0.09;87.31;100628.63;6343316;28;20044;-76
2023/01/29 04:07:33;;;;;;;6.32;1.83;;;;;;;0.14;86.94;100633.72;6310241;28;20480;-72
2023/01/29 04:10:37;;;;;;;2.67;1.85;;;;;;;0.13;87.17;100638.00;6320003;28;20426;-71
2023/01/29 04:13:39;;;;;;;7.00;1.58;;;;;;;0.29;86.24;100640.41;6321099;28;20040;-72
2023/01/29 04:16:44;;;;;;;4.57;1.95;;;;;;;0.19;87.14;100635.38;6328126;28;20092;-72
2023/01/29 04:19:46;;;;;;;8.73;2.65;;;;;;;0.32;86.61;100637.84;6321336;28;20061;-71
2023/01/29 04:22:51;;;;;;;2.83;1.60;;;;;;;0.34;87.56;100642.09;6302961;28;20518;-78
2023/01/29 04:25:58;;;;;;;3.45;2.28;;;;;;;0.37;85.95;100634.38;6320945;28;20046;-71
2023/01/29 04:29:44;;;;;;;1.58;0.88;;;;;;;0.33;87.04;100632.69;6302910;28;20036;-72
2023/01/29 04:33:16;;;;;;;5.43;1.75;;;;;;;0.32;86.73;100630.13;6218780;28;20060;-72
2023/01/29 04:36:26;;;;;;;2.10;1.48;;;;;;;0.33;86.92;100635.28;6231696;28;20058;-71
2023/01/29 04:40:03;;;;;;;2.47;1.42;;;;;;;0.31;86.75;100629.31;6320772;28;20484;-72
2023/01/29 04:43:11;;;;;;;6.53;2.58;;;;;;;0.19;86.47;100625.13;6320557;28;20396;-78
2023/01/29 04:46:33;;;;;;;2.78;1.73;;;;;;;0.32;85.83;100614.75;6320609;28;20041;-78
2023/01/29 04:50:07;;;;;;;3.13;1.52;;;;;;;0.28;86.50;100629.31;6305003;28;20504;-78
2023/01/29 04:53:15;;;;;;;3.20;2.13;;;;;;;0.31;85.05;100623.28;6325756;28;20050;-71
2023/01/29 04:56:18;;;;;;;2.95;1.63;;;;;;;0.25;85.66;100629.34;6325711;28;20043;-71
2023/01/29 04:59:37;;;;;;;3.95;2.40;;;;;;;0.20;85.11;100626.81;6325604;28;20510;-71
2023/01/29 05:02:41;;;;;;;1.83;0.95;;;;;;;0.26;85.29;100620.78;6307390;28;20590;-78
2023/01/29 05:05:46;;;;;;;2.70;1.67;;;;;;;0.19;85.96;100626.84;6307451;28;20119;-72
2023/01/29 05:08:50;;;;;;;7.63;3.60;;;;;;;0.24;84.86;100626.81;6307543;28;20043;-78
2023/01/29 05:11:51;;;;;;;2.30;1.60;;;;;;;0.13;84.19;100621.78;6307200;28;20480;-78
2023/01/29 05:14:54;;;;;;;1.20;1.10;;;;;;;0.35;84.67;100630.09;6319287;27;20043;-78
2023/01/29 05:18:00;;;;;;;1.77;1.48;;;;;;;0.30;83.16;100632.72;6326547;28;20032;-78
2023/01/29 05:21:06;;;;;;;5.43;1.92;;;;;;;0.33;82.86;100631.81;6324968;28;20070;-78
2023/01/29 05:24:14;;;;;;;0.95;0.70;;;;;;;0.42;83.16;100628.34;6309337;28;20044;-72
2023/01/29 05:30:51;;;;;;;3.15;1.10;;;;;;;0.19;83.48;100637.13;6324874;28;20059;-72
2023/01/29 05:33:52;;;;;;;1.73;1.63;;;;;;;0.15;83.84;100635.44;6306849;28;20040;-71
2023/01/29 05:36:52;;;;;;;4.70;1.88;;;;;;;0.14;83.43;100638.84;6324819;28;20047;-71
2023/01/29 05:39:53;;;;;;;2.22;1.33;;;;;;;0.12;84.46;100635.44;6324781;28;20048;-71
2023/01/29 05:42:54;;;;;;;1.17;1.08;;;;;;;0.20;84.44;100636.22;6306554;28;20040;-78
2023/01/29 05:45:57;;;;;;;2.97;1.88;;;;;;;0.28;84.13;100637.00;6324710;28;20047;-72
2023/01/29 05:49:00;;;;;;;4.60;1.77;;;;;;;0.06;84.12;100632.94;6306414;28;20036;-72
2023/01/29 05:52:01;;;;;;;2.70;1.90;;;;;;;0.20;83.50;100639.66;6324145;28;20060;-72
2023/01/29 05:55:03;;;;;;;1.17;0.63;;;;;;;0.07;83.77;100632.94;6324445;28;20044;-78
2023/01/29 05:58:06;;;;;;;1.65;1.20;;;;;;;0.29;84.41;100636.16;6306268;28;20075;-72
2023/01/29 06:01:11;;;;;;;3.28;0.45;;;;;;;0.24;84.13;100643.03;6305529;28;20404;-72
2023/01/29 06:04:12;;;;;;;1.27;0.82;;;;;;;0.29;83.27;100646.44;6306009;28;20063;-78
2023/01/29 06:07:13;;;;;;;2.05;1.35;;;;;;;0.23;83.42;100645.63;6306181;28;20040;-72
2023/01/29 06:10:16;;;;;;;2.33;1.42;;;;;;;0.22;83.92;100654.19;6320960;28;20038;-72
2023/01/29 06:13:18;;;;;;;3.80;1.58;;;;;;;0.33;82.55;100653.25;6349175;28;20050;-72
2023/01/29 06:16:19;;;;;;;2.10;1.30;;;;;;;0.16;84.12;100658.50;6331061;28;20044;-72
2023/01/29 06:19:20;;;;;;;1.73;1.25;;;;;;;0.19;84.39;100655.91;6348869;28;20085;-72
2023/01/29 06:22:20;;;;;;;1.17;1.08;;;;;;;0.20;83.72;100660.19;6342369;28;20111;-72
2023/01/29 06:25:21;;;;;;;4.25;1.83;;;;;;;0.13;84.23;100663.69;6323549;28;20488;-72
2023/01/29 06:28:22;;;;;;;2.95;2.22;;;;;;;0.22;84.05;100672.16;6323552;28;20042;-73
2023/01/29 06:31:23;;;;;;;1.75;1.30;;;;;;;0.23;84.40;100673.84;6323451;28;20492;-72
2023/01/29 06:34:24;;;;;;;1.58;1.33;;;;;;;0.23;84.76;100672.16;6305249;28;20341;-78
2023/01/29 06:37:25;;;;;;;7.28;2.03;;;;;;;0.16;84.28;100671.34;6305365;28;20060;-71
2023/01/29 06:40:26;;;;;;;4.13;1.85;;;;;;;0.32;83.92;100679.75;6323354;28;20173;-78
2023/01/29 06:43:27;;;;;;;14.25;1.85;;;;;;;0.34;84.16;100680.59;6338822;28;20479;-72
2023/01/29 06:46:27;;;;;;;1.30;0.85;;;;;;;0.28;84.46;100684.94;6332834;28;20094;-71
2023/01/29 06:49:28;;;;;;;2.05;1.58;;;;;;;0.29;84.82;100690.06;6345788;28;20395;-78
2023/01/29 06:52:31;;;;;;;1.52;1.13;;;;;;;0.29;84.54;100686.63;6329575;28;20131;-72
2023/01/29 06:55:32;;;;;;;4.72;3.47;;;;;;;0.37;84.49;100701.13;6329701;28;20043;-71
2023/01/29 06:58:35;;;;;;;3.53;1.75;;;;;;;0.36;84.47;100701.13;6346068;28;20044;-72
2023/01/29 07:01:40;;;;;;;4.75;1.35;;;;;;;0.25;85.42;100702.91;6319571;28;20040;-78
2023/01/29 07:04:41;;;;;;;4.43;1.92;;;;;;;0.28;84.81;100703.75;6343766;28;20071;-71
2023/01/29 07:07:42;;;;;;;1.58;1.48;;;;;;;0.23;84.66;100704.66;6343754;28;20407;-71
2023/01/29 07:10:43;;;;;;;4.80;1.83;;;;;;;0.17;85.01;100701.28;6333714;28;20036;-78
2023/01/29 07:13:44;;;;;;;0.65;0.65;;;;;;;0.22;84.22;100713.22;6324656;28;20055;-78
2023/01/29 07:16:45;;;;;;;4.97;1.85;;;;;;;0.35;84.11;100704.53;6304443;28;20123;-72
2023/01/29 07:19:45;;;;;;;1.25;0.95;;;;;;;0.27;81.73;100704.63;6332500;28;20104;-72
2023/01/29 07:22:46;;;;;;;1.45;1.27;;;;;;;0.33;82.45;100701.13;6337155;28;20040;-78
2023/01/29 07:25:48;;;;;;;1.80;1.13;;;;;;;0.36;81.87;100696.84;6338811;28;20118;-79
2023/01/29 07:28:51;;;;;;;1.58;1.15;;;;;;;0.34;81.25;100703.69;6341775;28;20097;-78
2023/01/29 07:31:54;;;;;;;4.07;1.63;;;;;;;0.22;83.07;100697.81;6321852;28;20046;-78
2023/01/29 07:34:57;;;;;;;2.65;1.58;;;;;;;0.25;82.58;100700.34;6328997;28;20518;-78
2023/01/29 07:37:58;;;;;;;1.33;1.13;;;;;;;0.28;83.17;100702.91;6327114;28;20051;-79
2023/01/29 07:40:59;;;;;;;2.53;1.52;;;;;;;0.35;82.84;100700.28;6336782;28;20090;-72
2023/01/29 07:44:00;;;;;;;2.55;1.10;;;;;;;0.46;80.84;100707.88;6328902;28;20040;-78
2023/01/29 07:47:01;;;;;;;1.27;1.02;;;;;;;0.45;79.91;100708.75;6311164;28;20479;-72
2023/01/29 07:50:03;;;;;;;1.65;1.55;;;;;;;0.43;80.83;100702.75;6329009;28;20514;-78
2023/01/29 07:53:11;;;;;;;1.58;1.27;;;;;;;0.41;79.67;100701.94;6321695;28;20055;-71
2023/01/29 07:56:11;;;;;;;3.08;1.08;;;;;;;0.51;80.12;100698.41;6299082;28;20036;-78
2023/01/29 07:59:12;;;;;;;2.75;1.50;;;;;;;0.43;79.39;100694.22;6303478;28;20101;-78
2023/01/29 08:02:16;;;;;;;1.10;1.00;;;;;;;0.63;79.86;100702.59;6321426;28;20043;-78
2023/01/29 08:05:17;;;;;;;2.08;1.30;;;;;;;0.56;78.68;100706.09;6311309;28;20408;-72
2023/01/29 08:08:18;;;;;;;3.65;2.35;;;;;;;0.63;79.38;100705.16;6332190;28;20046;-78
2023/01/29 08:11:21;;;;;;;1.73;1.27;;;;;;;0.61;79.78;100699.19;6297357;28;20043;-72
2023/01/29 08:14:22;;;;;;;1.77;1.52;;;;;;;0.56;80.11;100699.22;6305231;28;20050;-78
2023/01/29 08:17:23;;;;;;;2.65;1.83;;;;;;;0.39;81.98;100701.09;6321140;28;20036;-71
2023/01/29 08:20:25;;;;;;;1.23;1.02;;;;;;;0.54;81.06;100694.97;6313608;28;20032;-72
2023/01/29 08:23:28;;;;;;;2.75;1.40;;;;;;;0.59;80.13;100706.06;6277800;28;20041;-71
2023/01/29 08:26:29;;;;;;;1.15;1.05;;;;;;;0.53;79.71;100703.53;6295789;28;20071;-77
2023/01/29 08:29:30;;;;;;;4.18;2.55;;;;;;;0.65;80.30;100700.84;6278133;28;20044;-78
2023/01/29 08:32:31;;;;;;;1.98;1.42;;;;;;;0.63;80.39;100706.88;6298985;28;20134;-72
2023/01/29 08:35:31;;;;;;;3.40;1.15;;;;;;;0.73;80.91;100718.75;6295792;28;20040;-78
2023/01/29 08:38:32;;;;;;;1.70;1.33;;;;;;;0.60;80.47;100718.03;6296450;28;20507;-78
2023/01/29 08:41:33;;;;;;;2.50;1.58;;;;;;;0.65;81.74;100718.84;6320736;28;20040;-78
2023/01/29 08:44:34;;;;;;;2.75;1.05;;;;;;;0.57;81.88;100721.47;6320708;28;20472;-78
2023/01/29 08:47:35;;;;;;;3.80;1.90;;;;;;;0.56;81.41;100726.63;6320954;28;20455;-71
2023/01/29 08:50:36;;;;;;;1.65;1.55;;;;;;;0.56;82.21;100727.47;6305847;28;20139;-78
2023/01/29 08:53:37;;;;;;;1.02;0.93;;;;;;;0.52;81.72;100730.09;6327120;28;20120;-78
2023/01/29 08:56:38;;;;;;;1.48;1.10;;;;;;;0.49;82.33;100732.69;6327900;28;20039;-78
2023/01/29 08:59:38;;;;;;;1.02;0.95;;;;;;;0.40;83.22;100739.59;6346072;28;20051;-78
2023/01/29 09:02:42;;;;;;;2.60;1.80;;;;;;;0.57;83.26;100733.47;6327333;28;20115;-78
2023/01/29 09:05:42;;;;;;;3.47;2.10;;;;;;;0.65;83.72;100736.81;6302445;28;20133;-71
2023/01/29 09:08:43;;;;;;;1.55;1.42;;;;;;;0.58;83.63;100746.28;6320672;28;20479;-78
2023/01/29 09:11:46;;;;;;;2.13;1.90;;;;;;;0.57;84.25;100747.16;6320536;28;20044;-72
2023/01/29 09:14:47;;;;;;;3.55;1.67;;;;;;;0.64;83.61;100752.22;6321712;28;20032;-78
2023/01/29 09:17:48;;;;;;;1.95;1.83;;;;;;;0.59;84.57;100749.72;6345725;28;20517;-71
2023/01/29 09:20:49;;;;;;;1.67;1.10;;;;;;;0.73;82.64;100745.28;6322196;28;20043;-71
2023/01/29 09:23:51;;;;;;;5.85;3.17;;;;;;;0.43;84.41;100750.69;6302602;28;20043;-78
2023/01/29 09:26:54;;;;;;;2.28;1.75;;;;;;;0.52;84.18;100758.34;6320391;28;20039;-78
2023/01/29 09:29:54;;;;;;;1.67;1.40;;;;;;;0.68;83.50;100761.59;6300216;28;20043;-78
2023/01/29 09:32:56;;;;;;;3.45;1.35;;;;;;;0.57;84.38;100765.13;6292285;28;20047;-78
2023/01/29 09:35:57;;;;;;;5.45;1.70;;;;;;;0.69;83.98;100764.19;6330129;28;20047;-72
2023/01/29 09:38:58;;;;;;;2.45;1.17;;;;;;;0.46;83.49;100766.94;6315367;28;20055;-78
2023/01/29 09:42:16;;;;;;;6.78;2.08;;;;;;;0.62;82.88;100762.53;6355753;27;20082;-78
2023/01/29 09:45:23;;;;;;;5.22;2.22;;;;;;;0.80;82.79;100766.63;6375407;27;20254;-78
2023/01/29 09:48:27;;;;;;;1.77;1.40;;;;;;;0.71;82.40;100767.59;6335519;28;20039;-78
2023/01/29 09:51:40;;;;;;;3.05;1.65;;;;;;;0.65;83.20;100764.22;6297597;28;20106;-76
2023/01/29 09:55:26;;;;;;;1.75;1.55;;;;;;;0.56;83.21;100770.28;6300796;28;20489;-72
2023/01/29 09:58:30;;;;;;;2.33;1.02;;;;;;;0.66;83.00;100764.22;6205430;28;20129;-78
2023/01/29 10:02:05;;;;;;;2.10;1.38;;;;;;;0.71;79.75;100766.75;6297999;28;20044;-78
2023/01/29 10:05:20;;;;;;;1.92;1.27;;;;;;;0.51;80.95;100766.91;6297886;28;20455;-72
2023/01/29 10:08:27;;;;;;;2.28;1.85;;;;;;;0.83;81.61;100763.22;6299148;28;20139;-71
2023/01/29 10:12:03;;;;;;;1.70;1.42;;;;;;;0.79;80.58;100768.38;6299057;28;20481;-78
2023/01/29 10:15:28;;;;;;;1.83;1.13;;;;;;;0.71;80.18;100769.31;6298803;28;20750;-71
2023/01/29 10:18:45;;;;;;;6.25;1.85;;;;;;;0.98;80.62;100773.31;6297153;28;20056;-73
2023/01/29 10:22:00;;;;;;;6.13;2.58;;;;;;;0.98;80.49;100776.72;6323934;28;20043;-78
2023/01/29 10:25:14;;;;;;;1.70;1.17;;;;;;;0.99;79.98;100764.75;6333296;28;20036;-78
2023/01/29 10:28:45;;;;;;;6.20;1.23;;;;;;;1.05;79.11;100772.41;6349064;28;20123;-71
2023/01/29 10:31:54;;;;;;;3.97;1.92;;;;;;;1.01;78.69;100763.03;6320363;28;20056;-72
2023/01/29 10:35:04;;;;;;;1.30;1.10;;;;;;;1.14;78.67;100754.31;6330643;28;20036;-72
2023/01/29 10:38:34;;;;;;;1.40;1.27;;;;;;;1.13;78.65;100755.19;6348802;28;20040;-72
2023/01/29 10:42:06;;;;;;;3.17;2.05;;;;;;;1.08;77.71;100766.38;6339132;28;20049;-72
2023/01/29 10:45:45;;;;;;;4.75;2.28;;;;;;;1.11;78.81;100761.19;6296190;28;20914;-71
2023/01/29 10:48:49;;;;;;;2.20;1.58;;;;;;;1.22;77.63;100755.94;6323467;28;20048;-78
2023/01/29 10:52:25;;;;;;;2.10;1.67;;;;;;;1.07;77.14;100755.25;6322080;28;20060;-72
2023/01/29 10:55:49;;;;;;;2.63;1.33;;;;;;;1.17;76.02;100754.28;6265344;28;20059;-72
2023/01/29 10:58:58;;;;;;;1.08;0.98;;;;;;;1.06;76.96;100752.69;6342013;28;20496;-78
2023/01/29 11:01:59;;;;;;;0.50;0.50;;;;;;;0.98;76.67;100745.91;6329924;28;20134;-71
2023/01/29 11:05:00;;;;;;;3.80;1.42;;;;;;;1.14;77.04;100749.16;6348031;28;20043;-73
2023/01/29 11:08:10;;;;;;;2.53;1.92;;;;;;;1.02;77.50;100748.44;6329886;28;20428;-78
2023/01/29 11:11:11;;;;;;;2.65;1.33;;;;;;;0.84;76.93;100745.19;6329764;28;20032;-72
2023/01/29 11:14:24;;;;;;;2.33;1.55;;;;;;;0.94;76.37;100740.81;6329762;28;20554;-71
2023/01/29 11:17:25;;;;;;;1.40;1.10;;;;;;;0.89;75.90;100729.75;6347611;28;20047;-71
2023/01/29 11:20:28;;;;;;;2.22;1.48;;;;;;;1.11;75.47;100718.38;6329688;28;20051;-71
2023/01/29 11:23:30;;;;;;;;;;;;;;;0.97;76.35;100722.81;6329710;28;20047;-71
2023/01/29 11:26:34;;;;;;;2.90;1.57;;;;;;;0.94;76.46;100723.66;6347608;28;19980;-78
2023/01/29 11:29:51;;;;;;;1.65;1.25;;;;;;;0.96;75.52;100721.94;6330004;28;20051;-78
2023/01/29 11:33:08;;;;;;;2.17;1.35;;;;;;;1.20;75.83;100709.69;6324242;28;20471;-78
2023/01/29 11:36:31;;;;;;;9.10;1.95;;;;;;;1.26;74.57;100719.91;6339513;28;20192;-78
2023/01/29 11:39:34;;;;;;;5.25;1.10;;;;;;;1.18;74.73;100706.28;6347456;28;20073;-78
2023/01/29 11:42:35;;;;;;;3.53;1.45;;;;;;;1.28;75.12;100707.03;6347281;28;20479;-77
2023/01/29 11:45:39;;;;;;;1.63;1.05;;;;;;;1.16;74.37;100702.88;6347268;28;20093;-77
2023/01/29 11:48:40;;;;;;;5.45;1.95;;;;;;;1.30;73.21;100692.44;6347047;28;20036;-70
2023/01/29 11:51:40;;;;;;;1.95;1.50;;;;;;;1.18;74.45;100698.56;6328587;28;20060;-70
2023/01/29 11:55:04;;;;;;;3.13;1.10;;;;;;;1.20;74.44;100696.84;6346957;28;20035;-77
2023/01/29 11:58:29;;;;;;;1.25;1.13;;;;;;;1.14;72.60;100682.31;6328674;28;20062;-77
2023/01/29 12:01:35;;;;;;;0.98;0.93;;;;;;;1.15;73.45;100686.63;6328813;28;20044;-77
2023/01/29 12:04:38;;;;;;;1.67;1.13;;;;;;;1.28;73.48;100681.31;6345143;28;20039;-72
2023/01/29 12:07:45;;;;;;;1.88;1.27;;;;;;;1.22;71.92;100660.84;6319874;28;20682;-71
2023/01/29 12:10:49;;;;;;;0.90;0.90;;;;;;;1.37;71.98;100658.03;6328703;28;20652;-77
2023/01/29 12:13:55;;;;;;;3.10;2.08;;;;;;;1.46;71.85;100657.06;6345582;28;20063;-78
2023/01/29 12:17:22;;;;;;;2.78;1.05;;;;;;;1.43;71.10;100657.13;6303419;28;20070;-78
2023/01/29 12:20:30;;;;;;;2.85;1.65;;;;;;;1.48;70.26;100647.59;6308537;28;20043;-78
2023/01/29 12:23:43;;;;;;;2.25;1.25;;;;;;;1.59;69.85;100648.31;6324783;28;20048;-71
2023/01/29 12:26:49;;;;;;;2.55;1.42;;;;;;;1.63;70.22;100643.94;6324413;28;20036;-71
2023/01/29 12:30:16;;;;;;;1.67;1.25;;;;;;;1.70;70.05;100633.56;6328289;28;20039;-78
2023/01/29 12:33:44;;;;;;;1.02;0.93;;;;;;;1.81;69.29;100631.69;6346203;28;20510;-71
2023/01/29 12:37:08;;;;;;;1.02;0.98;;;;;;;1.72;69.84;100634.38;6346382;28;20040;-71
2023/01/29 12:40:16;;;;;;;0.98;0.82;;;;;;;1.71;69.79;100636.97;6346205;28;20078;-71
2023/01/29 12:43:29;;;;;;;3.60;1.90;;;;;;;1.66;69.12;100649.06;6328131;28;20088;-72
2023/01/29 12:46:42;;;;;;;1.40;1.30;;;;;;;1.47;69.08;100639.03;6320314;28;20484;-72
2023/01/29 12:49:50;;;;;;;4.78;1.85;;;;;;;1.52;69.56;100639.81;6330540;28;20109;-71
2023/01/29 12:52:56;;;;;;;3.00;1.60;;;;;;;1.40;68.85;100637.41;6306978;28;20064;-72
2023/01/29 12:56:41;;;;;;;1.70;0.98;;;;;;;1.45;69.70;100645.94;6317598;28;20109;-71
2023/01/29 12:59:51;;;;;;;1.25;1.15;;;;;;;1.31;68.67;100635.84;6310249;28;20114;-77
2023/01/29 13:03:07;;;;;;;2.72;1.02;;;;;;;1.37;69.74;100637.47;6297477;28;20519;-78
2023/01/29 13:06:12;;;;;;;1.67;1.25;;;;;;;1.56;69.57;100632.91;6277869;28;20044;-78
2023/01/29 13:09:21;;;;;;;4.55;2.13;;;;;;;1.61;68.64;100636.28;6284008;28;20067;-72
2023/01/29 13:12:23;;;;;;;3.97;2.25;;;;;;;1.59;68.53;100636.28;6311945;28;20090;-78
2023/01/29 13:15:44;;;;;;;3.83;2.25;;;;;;;1.63;68.13;100637.13;6318301;28;20491;-78
2023/01/29 13:18:49;;;;;;;2.10;1.23;;;;;;;1.54;69.26;100634.66;6306966;28;20051;-72
2023/01/29 13:21:53;;;;;;;4.22;1.98;;;;;;;1.77;70.13;100630.03;6321105;28;20051;-71
2023/01/29 13:24:55;;;;;;;4.22;2.00;;;;;;;1.55;67.50;100636.38;6307499;28;20403;-78
2023/01/29 13:27:56;;;;;;;2.83;1.98;;;;;;;1.64;68.99;100646.50;6325291;28;20036;-78
2023/01/29 13:31:22;;;;;;;6.90;3.03;;;;;;;1.45;68.32;100642.53;6325412;28;20039;-71
2023/01/29 13:34:35;;;;;;;4.60;2.67;;;;;;;1.54;69.55;100643.22;6325080;28;20054;-71
2023/01/29 13:37:47;;;;;;;4.68;1.90;;;;;;;1.53;69.36;100638.13;6324875;28;20048;-78
2023/01/29 13:40:50;;;;;;;1.92;1.55;;;;;;;1.52;68.07;100633.84;6324737;28;20048;-71
2023/01/29 13:43:50;;;;;;;4.35;1.92;;;;;;;1.74;68.72;100636.94;6306786;28;20040;-71
2023/01/29 13:47:01;;;;;;;6.53;3.47;;;;;;;1.67;67.96;100630.19;6306464;28;20048;-71
2023/01/29 13:50:34;;;;;;;5.30;2.80;;;;;;;1.70;68.28;100625.00;6324533;28;20040;-71
2023/01/29 13:53:39;;;;;;;4.15;2.20;;;;;;;1.66;66.60;100624.19;6305922;28;20036;-78
2023/01/29 13:56:58;;;;;;;5.45;3.67;;;;;;;1.73;67.91;100625.81;6308473;28;20044;-78
2023/01/29 13:59:59;;;;;;;4.57;3.10;;;;;;;1.67;67.48;100625.91;6299272;28;20503;-77
2023/01/29 14:03:00;;;;;;;2.90;2.00;;;;;;;1.69;66.89;100623.28;6292500;28;20119;-78
2023/01/29 14:06:01;;;;;;;6.38;2.83;;;;;;;1.76;67.71;100620.59;6324107;28;20412;-72
2023/01/29 14:09:02;;;;;;;5.55;3.13;;;;;;;1.60;67.15;100635.41;6305991;28;20484;-78
2023/01/29 14:12:24;;;;;;;5.45;2.28;;;;;;;1.56;67.45;100633.75;6306155;28;20040;-78
2023/01/29 14:15:28;;;;;;;5.40;3.00;;;;;;;1.75;68.07;100623.19;6305889;28;20058;-78
2023/01/29 14:18:30;;;;;;;4.43;2.55;;;;;;;1.67;67.54;100619.88;6305927;28;20138;-78
2023/01/29 14:21:34;;;;;;;5.13;3.03;;;;;;;1.70;68.22;100630.97;6305448;28;20051;-71
2023/01/29 14:24:35;;;;;;;4.45;2.65;;;;;;;1.69;68.00;100628.44;6301783;28;20052;-72
2023/01/29 14:27:36;;;;;;;6.63;3.03;;;;;;;1.65;67.83;100626.78;6305620;28;20036;-72
2023/01/29 14:30:39;;;;;;;9.70;4.65;;;;;;;1.67;69.41;100613.03;6305566;28;20561;-72
2023/01/29 14:33:40;;;;;;;6.40;3.60;;;;;;;1.72;67.67;100607.81;6323504;28;20044;-71
2023/01/29 14:36:44;;;;;;;5.60;3.20;;;;;;;1.72;67.83;100605.25;6305520;28;20067;-75
2023/01/29 14:40:00;;;;;;;7.43;3.45;;;;;;;1.73;68.45;100609.50;6305358;28;20032;-72
2023/01/29 14:43:20;;;;;;;4.45;3.22;;;;;;;1.75;67.99;100618.03;6323189;28;20040;-78
2023/01/29 14:46:35;;;;;;;7.03;2.75;;;;;;;1.79;69.74;100604.25;6323400;28;20408;-71
2023/01/29 14:49:52;;;;;;;7.20;3.95;;;;;;;1.88;71.23;100601.56;6323327;28;20040;-71
2023/01/29 14:53:17;;;;;;;8.90;4.65;;;;;;;1.93;69.51;100604.88;6336964;28;20487;-78
2023/01/29 14:56:50;;;;;;;15.10;6.20;;;;;;;1.86;68.42;100610.19;6309081;28;20048;-78
2023/01/29 15:00:25;;;;;;;12.15;5.65;;;;;;;1.73;68.87;100618.09;6299278;28;20143;-78
2023/01/29 15:03:48;;;;;;;6.18;4.00;;;;;;;1.76;69.26;100614.63;6290033;28;20515;-78
2023/01/29 15:07:04;;;;;;;13.63;5.80;;;;;;;1.75;69.56;100610.31;6322833;28;20552;-71
2023/01/29 15:10:25;;;;;;;18.40;8.02;;;;;;;1.69;71.16;100620.72;6322476;28;20036;-71